Time;durP1;ratioP1;P1;durP2;ratioP2;P2;SDS_P1;SDS_P2;PMS_P1;PMS_P2;Temp;Humidity;BMP_temperature;BMP_pressure;BME280_temperature;BME280_humidity;BME280_pressure;Samples;Min_cycle;Max_cycle;Signal;HPM_P1;HPM_P2
2021/12/22 00:00:18;;;;;;;13.57;2.50;;;;;;;;;;5013506;28;20045;-54
2021/12/22 00:02:50;;;;;;;8.52;2.67;;;;;;;;;;5013917;28;20018;-54
2021/12/22 00:05:19;;;;;;;6.57;2.83;;;;;;;;;;5013906;28;20109;-56
2021/12/22 00:07:46;;;;;;;11.15;2.83;;;;;;;;;;5014282;28;20026;-55
2021/12/22 00:10:13;;;;;;;8.48;3.30;;;;;;;;;;5014456;28;20030;-56
2021/12/22 00:12:40;;;;;;;12.20;3.25;;;;;;;;;;5014235;28;20048;-56
2021/12/22 00:15:07;;;;;;;7.32;2.70;;;;;;;;;;5013614;28;20504;-56
2021/12/22 00:17:35;;;;;;;7.90;2.30;;;;;;;;;;5013961;28;20057;-55
2021/12/22 00:20:02;;;;;;;7.25;2.80;;;;;;;;;;5013817;28;20066;-56
2021/12/22 00:22:29;;;;;;;6.05;2.42;;;;;;;;;;4996495;28;20022;-54
2021/12/22 00:24:56;;;;;;;5.93;3.10;;;;;;;;;;5012741;28;20375;-54
2021/12/22 00:27:23;;;;;;;6.05;2.60;;;;;;;;;;4994081;28;20026;-56
2021/12/22 00:29:51;;;;;;;6.18;2.33;;;;;;;;;;5012036;28;20386;-56
2021/12/22 00:32:19;;;;;;;7.43;2.58;;;;;;;;;;5012273;28;20030;-54
2021/12/22 00:34:50;;;;;;;7.90;2.22;;;;;;;;;;4993693;28;20079;-52
2021/12/22 00:37:19;;;;;;;8.93;3.15;;;;;;;;;;5011872;28;20111;-56
2021/12/22 00:39:47;;;;;;;8.57;3.05;;;;;;;;;;5011406;28;20034;-56
2021/12/22 00:42:14;;;;;;;7.53;3.15;;;;;;;;;;5011822;28;20492;-55
2021/12/22 00:44:42;;;;;;;8.05;2.35;;;;;;;;;;5011894;28;20045;-52
2021/12/22 00:47:10;;;;;;;5.90;2.70;;;;;;;;;;5011500;28;20014;-56
2021/12/22 00:49:37;;;;;;;10.30;2.58;;;;;;;;;;5011821;28;20068;-56
2021/12/22 00:52:04;;;;;;;4.68;2.50;;;;;;;;;;5011821;28;20385;-55
2021/12/22 00:54:32;;;;;;;8.45;3.42;;;;;;;;;;5011328;28;20429;-55
2021/12/22 00:57:04;;;;;;;6.93;2.70;;;;;;;;;;5011589;28;20080;-56
2021/12/22 00:59:32;;;;;;;7.60;2.38;;;;;;;;;;5010066;28;20045;-56
2021/12/22 01:02:00;;;;;;;8.00;2.60;;;;;;;;;;5011557;28;20088;-55
2021/12/22 01:04:27;;;;;;;4.65;2.28;;;;;;;;;;5011343;28;20018;-56
2021/12/22 01:06:54;;;;;;;8.43;2.70;;;;;;;;;;5011171;28;20022;-56
2021/12/22 01:09:21;;;;;;;8.40;2.28;;;;;;;;;;5011759;28;20029;-56
2021/12/22 01:11:49;;;;;;;7.30;2.15;;;;;;;;;;5011107;28;20026;-55
2021/12/22 01:14:16;;;;;;;10.23;2.55;;;;;;;;;;5010952;28;20381;-56
2021/12/22 01:16:47;;;;;;;9.48;2.22;;;;;;;;;;5011067;28;20113;-56
2021/12/22 01:19:19;;;;;;;7.03;2.00;;;;;;;;;;5010838;28;20032;-55
2021/12/22 01:21:52;;;;;;;6.80;2.20;;;;;;;;;;5011050;28;20145;-55
2021/12/22 01:24:31;;;;;;;8.30;2.92;;;;;;;;;;4994609;28;20037;-56
2021/12/22 01:27:05;;;;;;;5.60;1.98;;;;;;;;;;5010925;28;20457;-56
2021/12/22 01:29:32;;;;;;;7.15;2.58;;;;;;;;;;5011163;28;20033;-56
2021/12/22 01:32:00;;;;;;;5.15;2.13;;;;;;;;;;5010971;28;20046;-56
2021/12/22 01:34:28;;;;;;;4.53;2.20;;;;;;;;;;5010616;28;20048;-56
2021/12/22 01:36:58;;;;;;;9.50;2.53;;;;;;;;;;5011167;28;20057;-56
2021/12/22 01:39:25;;;;;;;7.60;2.28;;;;;;;;;;5010405;28;20021;-52
2021/12/22 01:41:52;;;;;;;6.05;2.35;;;;;;;;;;5011043;28;20104;-54
2021/12/22 01:44:33;;;;;;;5.88;2.42;;;;;;;;;;5010507;28;20466;-56
2021/12/22 01:49:50;;;;;;;4.60;2.10;;;;;;;;;;5010923;28;20220;-55
2021/12/22 01:52:17;;;;;;;7.93;2.05;;;;;;;;;;5010392;28;20034;-56
2021/12/22 01:54:49;;;;;;;3.92;2.00;;;;;;;;;;5010651;28;20022;-56
2021/12/22 01:57:17;;;;;;;6.50;2.65;;;;;;;;;;5010092;28;20030;-57
2021/12/22 01:59:46;;;;;;;7.00;2.20;;;;;;;;;;5010379;28;20485;-55
2021/12/22 02:02:14;;;;;;;6.25;2.00;;;;;;;;;;5010797;28;20026;-55
2021/12/22 02:04:41;;;;;;;6.82;2.13;;;;;;;;;;5009777;28;20057;-59
2021/12/22 02:07:08;;;;;;;5.15;2.60;;;;;;;;;;5010136;28;20053;-56
2021/12/22 02:09:45;;;;;;;7.13;2.25;;;;;;;;;;5010684;28;20018;-56
2021/12/22 02:12:13;;;;;;;4.97;2.15;;;;;;;;;;5010042;28;20045;-53
2021/12/22 02:14:41;;;;;;;5.18;2.53;;;;;;;;;;5010066;28;20088;-54
2021/12/22 02:17:11;;;;;;;7.65;2.10;;;;;;;;;;5009837;28;20021;-56
2021/12/22 02:19:39;;;;;;;3.17;1.90;;;;;;;;;;5009849;28;20071;-56
2021/12/22 02:22:14;;;;;;;8.48;2.47;;;;;;;;;;5010234;28;20363;-56
2021/12/22 02:24:52;;;;;;;5.55;2.15;;;;;;;;;;5009758;28;20040;-54
2021/12/22 02:27:28;;;;;;;5.82;2.38;;;;;;;;;;5009294;28;20041;-56
2021/12/22 02:30:01;;;;;;;6.82;2.30;;;;;;;;;;5010416;28;20092;-55
2021/12/22 02:35:14;;;;;;;5.57;2.25;;;;;;;;;;5010144;28;20470;-56
2021/12/22 02:37:44;;;;;;;5.15;2.25;;;;;;;;;;5010104;28;20014;-56
2021/12/22 02:40:15;;;;;;;6.70;2.53;;;;;;;;;;5009454;28;20048;-56
2021/12/22 02:42:44;;;;;;;6.28;2.80;;;;;;;;;;5009884;28;20022;-56
2021/12/22 02:45:13;;;;;;;6.18;2.47;;;;;;;;;;5009342;28;20030;-56
2021/12/22 02:47:40;;;;;;;5.07;2.50;;;;;;;;;;5009400;28;20018;-55
2021/12/22 02:50:09;;;;;;;5.70;2.00;;;;;;;;;;5009790;28;20682;-56
2021/12/22 02:55:42;;;;;;;6.65;2.20;;;;;;;;;;5009369;28;20478;-56
2021/12/22 02:58:13;;;;;;;4.80;2.00;;;;;;;;;;5010031;28;20030;-55
2021/12/22 03:01:06;;;;;;;5.63;2.20;;;;;;;;;;5009597;28;20044;-54
2021/12/22 03:03:50;;;;;;;5.97;2.60;;;;;;;;;;5009631;28;20030;-54
2021/12/22 03:06:27;;;;;;;7.53;2.10;;;;;;;;;;5010117;28;20378;-56
2021/12/22 03:08:54;;;;;;;8.60;2.63;;;;;;;;;;5009612;28;20418;-56
2021/12/22 03:11:21;;;;;;;5.93;2.25;;;;;;;;;;5009620;28;20164;-56
2021/12/22 03:13:48;;;;;;;4.97;2.67;;;;;;;;;;5009773;28;20093;-57
2021/12/22 03:16:18;;;;;;;5.82;1.83;;;;;;;;;;5009426;28;20165;-55
2021/12/22 03:18:46;;;;;;;7.95;2.10;;;;;;;;;;5009597;28;20026;-55
2021/12/22 03:21:20;;;;;;;3.92;1.80;;;;;;;;;;5009337;28;20121;-55
2021/12/22 03:23:48;;;;;;;3.47;1.60;;;;;;;;;;5013204;28;20045;-56
2021/12/22 03:26:17;;;;;;;5.43;2.10;;;;;;;;;;4996006;28;20053;-56
2021/12/22 03:28:45;;;;;;;8.07;2.33;;;;;;;;;;5012831;28;20097;-55
2021/12/22 03:31:13;;;;;;;6.10;1.67;;;;;;;;;;5013366;28;20368;-57
2021/12/22 03:33:40;;;;;;;5.72;1.67;;;;;;;;;;5013194;28;20018;-56
2021/12/22 03:36:07;;;;;;;5.68;2.03;;;;;;;;;;5012887;28;20061;-56
2021/12/22 03:38:35;;;;;;;3.05;1.48;;;;;;;;;;5012974;28;20064;-55
2021/12/22 03:41:03;;;;;;;3.78;1.98;;;;;;;;;;5013006;28;20045;-55
2021/12/22 03:43:31;;;;;;;4.97;2.20;;;;;;;;;;5013023;28;20467;-56
2021/12/22 03:45:58;;;;;;;7.05;2.22;;;;;;;;;;5012528;28;20021;-56
2021/12/22 03:48:26;;;;;;;4.47;1.73;;;;;;;;;;5012389;28;20402;-56
2021/12/22 03:50:53;;;;;;;2.95;1.80;;;;;;;;;;5013315;28;20032;-55
2021/12/22 03:53:20;;;;;;;3.90;1.90;;;;;;;;;;5012418;28;20026;-56
2021/12/22 03:55:47;;;;;;;3.63;1.98;;;;;;;;;;5012945;28;20517;-55
2021/12/22 03:58:14;;;;;;;3.58;1.63;;;;;;;;;;5012455;28;20064;-56
2021/12/22 04:00:42;;;;;;;3.70;1.75;;;;;;;;;;5012363;28;20061;-55
2021/12/22 04:03:18;;;;;;;2.75;1.60;;;;;;;;;;5012944;28;20025;-55
2021/12/22 04:05:46;;;;;;;5.03;1.80;;;;;;;;;;5012530;28;20109;-56
2021/12/22 04:08:16;;;;;;;3.85;1.70;;;;;;;;;;5012308;28;20026;-56
2021/12/22 04:10:43;;;;;;;5.30;1.92;;;;;;;;;;5012910;28;20321;-55
2021/12/22 04:13:10;;;;;;;5.88;1.90;;;;;;;;;;5012459;28;20068;-56
2021/12/22 04:15:37;;;;;;;4.80;1.88;;;;;;;;;;5012543;28;20101;-56
2021/12/22 04:18:04;;;;;;;3.40;1.70;;;;;;;;;;5011877;28;20025;-55
2021/12/22 04:20:31;;;;;;;4.43;1.60;;;;;;;;;;5012169;28;20485;-59
2021/12/22 04:22:59;;;;;;;4.13;1.70;;;;;;;;;;5012719;28;20033;-56
2021/12/22 04:25:27;;;;;;;5.80;1.52;;;;;;;;;;5011861;28;20030;-55
2021/12/22 04:27:56;;;;;;;3.15;1.50;;;;;;;;;;5011963;28;20111;-56
2021/12/22 04:30:25;;;;;;;3.97;1.63;;;;;;;;;;5011936;28;20030;-56
2021/12/22 04:32:52;;;;;;;5.78;1.95;;;;;;;;;;5011457;28;20543;-56
2021/12/22 04:35:19;;;;;;;2.97;1.80;;;;;;;;;;5012154;28;20030;-56
2021/12/22 04:37:46;;;;;;;3.80;2.13;;;;;;;;;;5011659;28;20486;-55
2021/12/22 04:40:14;;;;;;;2.70;1.50;;;;;;;;;;5012017;28;20041;-56
2021/12/22 04:42:41;;;;;;;2.55;1.65;;;;;;;;;;4994613;28;20125;-57
2021/12/22 04:45:08;;;;;;;4.50;1.90;;;;;;;;;;5011691;28;20126;-56
2021/12/22 04:47:36;;;;;;;4.38;1.77;;;;;;;;;;5011453;28;20097;-56
2021/12/22 04:50:08;;;;;;;5.15;1.80;;;;;;;;;;5011562;28;20560;-57
2021/12/22 04:52:43;;;;;;;4.55;1.70;;;;;;;;;;5011667;28;20029;-56
2021/12/22 04:55:10;;;;;;;3.10;1.70;;;;;;;;;;5011759;28;20597;-56
2021/12/22 04:57:37;;;;;;;2.58;1.40;;;;;;;;;;5010880;28;20517;-56
2021/12/22 05:00:06;;;;;;;3.70;1.55;;;;;;;;;;5011741;28;20037;-53
2021/12/22 05:02:33;;;;;;;5.90;1.80;;;;;;;;;;5011801;28;20040;-51
2021/12/22 05:05:00;;;;;;;6.00;2.28;;;;;;;;;;5011355;28;20160;-55
2021/12/22 05:07:27;;;;;;;3.30;1.60;;;;;;;;;;5011657;28;20026;-56
2021/12/22 05:09:54;;;;;;;2.60;1.55;;;;;;;;;;5011039;28;20064;-56
2021/12/22 05:12:21;;;;;;;2.70;1.50;;;;;;;;;;5011421;28;20022;-54
2021/12/22 05:14:50;;;;;;;4.03;1.58;;;;;;;;;;5011021;28;20061;-56
2021/12/22 05:17:27;;;;;;;2.13;1.48;;;;;;;;;;5011104;28;20014;-53
2021/12/22 05:19:54;;;;;;;3.50;1.42;;;;;;;;;;4993823;28;20047;-56
2021/12/22 05:22:21;;;;;;;2.70;1.55;;;;;;;;;;5011155;28;20072;-56
2021/12/22 05:24:48;;;;;;;2.40;1.42;;;;;;;;;;5010995;28;20026;-55
2021/12/22 05:27:15;;;;;;;2.03;1.30;;;;;;;;;;5010793;28;20025;-54
2021/12/22 05:29:42;;;;;;;5.43;1.50;;;;;;;;;;5010827;28;20371;-56
2021/12/22 05:32:09;;;;;;;3.17;1.45;;;;;;;;;;5011514;28;20381;-56
2021/12/22 05:34:36;;;;;;;3.83;2.08;;;;;;;;;;4993237;28;20433;-56
2021/12/22 05:37:03;;;;;;;3.42;1.75;;;;;;;;;;5010765;28;20026;-56
2021/12/22 05:39:30;;;;;;;3.40;1.48;;;;;;;;;;5010160;28;20032;-55
2021/12/22 05:41:58;;;;;;;3.92;1.40;;;;;;;;;;5006834;28;20040;-57
2021/12/22 05:44:25;;;;;;;6.88;1.20;;;;;;;;;;5004095;28;20026;-52
2021/12/22 05:46:52;;;;;;;3.45;1.15;;;;;;;;;;5007738;28;20026;-47
2021/12/22 05:49:19;;;;;;;2.67;1.02;;;;;;;;;;4991444;28;20045;-48
2021/12/22 05:51:46;;;;;;;3.50;1.23;;;;;;;;;;5001927;28;20458;-48
2021/12/22 05:54:13;;;;;;;3.13;1.08;;;;;;;;;;4998951;28;20032;-47
2021/12/22 05:56:40;;;;;;;1.60;1.05;;;;;;;;;;5000331;28;20038;-46
2021/12/22 05:59:07;;;;;;;2.22;0.98;;;;;;;;;;4998248;28;20045;-47
2021/12/22 06:01:34;;;;;;;1.88;0.93;;;;;;;;;;4998011;28;20076;-48
2021/12/22 06:04:03;;;;;;;1.85;0.95;;;;;;;;;;5005222;28;20067;-48
2021/12/22 06:06:30;;;;;;;2.83;1.27;;;;;;;;;;4999281;28;20030;-49
2021/12/22 06:08:57;;;;;;;1.88;0.95;;;;;;;;;;5000407;28;20025;-50
2021/12/22 06:11:24;;;;;;;6.63;0.98;;;;;;;;;;5000139;28;20109;-48
2021/12/22 06:13:51;;;;;;;2.83;1.08;;;;;;;;;;5008944;28;20057;-49
2021/12/22 06:16:18;;;;;;;2.45;1.05;;;;;;;;;;5010576;28;20382;-48
2021/12/22 06:18:47;;;;;;;1.25;0.90;;;;;;;;;;5009995;28;20104;-52
2021/12/22 06:21:15;;;;;;;6.45;1.92;;;;;;;;;;5009625;28;20030;-47
2021/12/22 06:23:42;;;;;;;4.65;1.23;;;;;;;;;;5009235;28;20030;-47
2021/12/22 06:26:09;;;;;;;3.15;1.35;;;;;;;;;;5009921;28;20053;-48
2021/12/22 06:28:36;;;;;;;5.47;1.20;;;;;;;;;;5181938;23;20113;-53
2021/12/22 06:31:03;;;;;;;3.83;1.10;;;;;;;;;;5012015;28;20109;-53
2021/12/22 06:33:30;;;;;;;1.70;1.10;;;;;;;;;;5011850;28;20033;-50
2021/12/22 06:35:57;;;;;;;2.35;1.20;;;;;;;;;;5011852;28;20744;-49
2021/12/22 06:38:24;;;;;;;4.07;1.45;;;;;;;;;;5011640;28;20097;-57
2021/12/22 06:40:51;;;;;;;4.30;1.45;;;;;;;;;;5090453;23;20009;-49
2021/12/22 06:43:18;;;;;;;2.88;1.23;;;;;;;;;;5049927;28;20075;-50
2021/12/22 06:45:45;;;;;;;2.42;1.20;;;;;;;;;;5050516;28;20421;-50
2021/12/22 06:48:12;;;;;;;4.68;1.15;;;;;;;;;;5050565;28;20021;-50
2021/12/22 06:50:39;;;;;;;3.08;1.33;;;;;;;;;;5050060;28;20021;-52
2021/12/22 06:53:06;;;;;;;3.72;1.40;;;;;;;;;;5050383;28;20070;-51
2021/12/22 06:55:34;;;;;;;4.72;1.02;;;;;;;;;;5050349;28;20050;-52
2021/12/22 06:58:01;;;;;;;2.10;1.10;;;;;;;;;;5050159;28;20104;-50
2021/12/22 07:00:29;;;;;;;3.72;1.20;;;;;;;;;;5031740;28;20036;-54
2021/12/22 07:02:57;;;;;;;3.33;1.60;;;;;;;;;;5050486;28;20090;-50
2021/12/22 07:05:24;;;;;;;2.83;1.05;;;;;;;;;;5050535;28;20114;-47
2021/12/22 07:07:51;;;;;;;1.80;0.98;;;;;;;;;;5050613;28;20128;-52
2021/12/22 07:10:18;;;;;;;1.90;1.00;;;;;;;;;;5050731;28;20070;-52
2021/12/22 07:12:46;;;;;;;1.45;1.00;;;;;;;;;;5050569;28;20025;-52
2021/12/22 07:15:14;;;;;;;2.88;1.20;;;;;;;;;;5050564;28;20111;-50
2021/12/22 07:17:45;;;;;;;3.25;1.15;;;;;;;;;;5050549;28;20013;-51
2021/12/22 07:20:13;;;;;;;2.70;1.10;;;;;;;;;;5050474;28;20036;-51
2021/12/22 07:22:40;;;;;;;3.47;1.17;;;;;;;;;;5050351;28;20417;-48
2021/12/22 07:25:08;;;;;;;4.00;1.20;;;;;;;;;;5050539;28;20036;-53
2021/12/22 07:27:35;;;;;;;3.05;1.58;;;;;;;;;;5050366;28;20072;-48
2021/12/22 07:30:03;;;;;;;3.17;1.70;;;;;;;;;;5050317;28;20679;-52
2021/12/22 07:32:30;;;;;;;2.67;1.20;;;;;;;;;;5050270;28;20025;-51
2021/12/22 07:35:03;;;;;;;5.05;1.08;;;;;;;;;;5050507;28;20032;-47
2021/12/22 07:37:43;;;;;;;6.05;1.23;;;;;;;;;;5050302;28;20484;-52
2021/12/22 07:40:12;;;;;;;4.85;1.42;;;;;;;;;;5050124;28;20080;-47
2021/12/22 07:42:39;;;;;;;3.60;1.05;;;;;;;;;;5031294;28;20057;-47
2021/12/22 07:45:07;;;;;;;2.28;1.10;;;;;;;;;;5029503;28;20497;-52
2021/12/22 07:47:34;;;;;;;3.00;1.02;;;;;;;;;;5029282;28;20412;-51
2021/12/22 07:50:01;;;;;;;2.92;1.40;;;;;;;;;;5029397;28;20511;-52
2021/12/22 07:52:30;;;;;;;2.60;1.20;;;;;;;;;;5011588;28;20037;-48
2021/12/22 07:54:57;;;;;;;4.63;1.02;;;;;;;;;;5029095;28;20033;-50
2021/12/22 07:57:24;;;;;;;2.47;1.13;;;;;;;;;;5029253;28;20562;-51
2021/12/22 07:59:51;;;;;;;2.65;1.10;;;;;;;;;;5029267;28;20038;-53
2021/12/22 08:02:18;;;;;;;2.25;1.10;;;;;;;;;;5029155;28;20124;-52
2021/12/22 08:04:45;;;;;;;2.88;1.10;;;;;;;;;;5028993;28;20381;-51
2021/12/22 08:07:12;;;;;;;3.90;1.50;;;;;;;;;;5029217;28;20022;-51
2021/12/22 08:09:39;;;;;;;3.05;1.05;;;;;;;;;;5032285;28;20053;-51
2021/12/22 08:12:06;;;;;;;4.13;1.80;;;;;;;;;;5032129;28;20853;-48
2021/12/22 08:14:34;;;;;;;1.85;1.05;;;;;;;;;;5032602;28;20029;-47
2021/12/22 08:17:01;;;;;;;3.13;1.20;;;;;;;;;;5032163;28;20030;-48
2021/12/22 08:19:28;;;;;;;3.95;1.40;;;;;;;;;;5032235;28;20392;-48
2021/12/22 08:21:55;;;;;;;3.78;1.40;;;;;;;;;;5032557;28;20030;-51
2021/12/22 08:24:23;;;;;;;3.10;1.75;;;;;;;;;;5032548;28;20067;-52
2021/12/22 08:26:50;;;;;;;4.38;1.23;;;;;;;;;;5032260;28;20021;-50
2021/12/22 08:29:18;;;;;;;1.92;0.95;;;;;;;;;;5032246;28;20389;-50
2021/12/22 08:31:45;;;;;;;2.47;1.17;;;;;;;;;;5014434;28;20038;-57
2021/12/22 08:34:16;;;;;;;3.05;1.48;;;;;;;;;;5032087;28;20026;-54
2021/12/22 08:39:28;;;;;;;5.40;1.45;;;;;;;;;;5032094;28;20062;-54
2021/12/22 08:41:55;;;;;;;4.97;1.10;;;;;;;;;;4938691;28;2700985;-53
2021/12/22 08:44:23;;;;;;;2.08;1.02;;;;;;;;;;5033042;28;20040;-56
2021/12/22 08:46:51;;;;;;;4.15;1.30;;;;;;;;;;5032930;28;20695;-53
2021/12/22 08:49:19;;;;;;;5.10;1.92;;;;;;;;;;5033055;28;20077;-52
2021/12/22 08:51:46;;;;;;;4.32;1.00;;;;;;;;;;5032656;28;20036;-53
2021/12/22 08:54:13;;;;;;;6.00;1.40;;;;;;;;;;5032902;28;20384;-51
2021/12/22 08:56:41;;;;;;;5.72;1.13;;;;;;;;;;5032915;28;20033;-55
2021/12/22 08:59:10;;;;;;;3.58;1.27;;;;;;;;;;5032751;28;20096;-51
2021/12/22 09:01:38;;;;;;;3.05;1.30;;;;;;;;;;5032609;28;20183;-53
2021/12/22 09:04:05;;;;;;;5.47;1.70;;;;;;;;;;5032238;28;20358;-54
2021/12/22 09:06:32;;;;;;;5.80;1.20;;;;;;;;;;5032049;28;20033;-51
2021/12/22 09:08:59;;;;;;;4.32;1.23;;;;;;;;;;5032475;28;20021;-53
2021/12/22 09:11:27;;;;;;;3.58;1.05;;;;;;;;;;5032707;28;20477;-55
2021/12/22 09:13:54;;;;;;;6.70;1.58;;;;;;;;;;5032432;28;20036;-52
2021/12/22 09:16:21;;;;;;;4.72;1.85;;;;;;;;;;5032461;28;20035;-47
2021/12/22 09:18:48;;;;;;;5.00;1.63;;;;;;;;;;5031670;28;20027;-53
2021/12/22 09:21:16;;;;;;;16.65;2.63;;;;;;;;;;5031562;28;20041;-50
2021/12/22 09:23:43;;;;;;;14.70;2.10;;;;;;;;;;5032368;28;20022;-52
2021/12/22 09:26:10;;;;;;;7.45;1.50;;;;;;;;;;5032392;28;20029;-51
2021/12/22 09:28:38;;;;;;;8.73;2.25;;;;;;;;;;5014310;28;20021;-55
2021/12/22 09:31:05;;;;;;;5.78;1.60;;;;;;;;;;5032233;28;20497;-53
2021/12/22 09:33:33;;;;;;;5.10;1.38;;;;;;;;;;5032015;28;20079;-51
2021/12/22 09:36:01;;;;;;;41.78;4.65;;;;;;;;;;5031980;28;20060;-56
2021/12/22 09:38:28;;;;;;;13.20;2.10;;;;;;;;;;5031401;28;20041;-50
2021/12/22 09:40:55;;;;;;;5.38;2.15;;;;;;;;;;5013935;28;20492;-51
2021/12/22 09:43:22;;;;;;;9.27;1.50;;;;;;;;;;5032214;28;20044;-48
2021/12/22 09:45:55;;;;;;;4.65;1.55;;;;;;;;;;5031814;28;20108;-52
2021/12/22 09:53:32;;;;;;;5.72;2.00;;;;;;;;;;5032016;28;20366;-48
2021/12/22 09:56:00;;;;;;;5.63;1.85;;;;;;;;;;5031677;28;20017;-50
2021/12/22 09:58:28;;;;;;;9.40;2.05;;;;;;;;;;5031429;28;20037;-52
2021/12/22 10:00:55;;;;;;;8.85;2.15;;;;;;;;;;5031452;28;20509;-49
2021/12/22 10:03:23;;;;;;;16.88;2.72;;;;;;;;;;5031627;28;20109;-47
2021/12/22 10:05:50;;;;;;;6.53;2.22;;;;;;;;;;5031639;28;20484;-54
2021/12/22 10:08:19;;;;;;;5.65;2.30;;;;;;;;;;5031459;28;20036;-47
2021/12/22 10:10:48;;;;;;;11.73;2.38;;;;;;;;;;5031465;28;20496;-49
2021/12/22 10:13:23;;;;;;;23.60;3.05;;;;;;;;;;5031305;28;20032;-49
2021/12/22 10:15:50;;;;;;;6.07;2.30;;;;;;;;;;5031389;28;20029;-51
2021/12/22 10:18:18;;;;;;;18.10;3.88;;;;;;;;;;5030983;28;20108;-49
2021/12/22 10:20:47;;;;;;;9.40;2.33;;;;;;;;;;5030940;28;20037;-53
2021/12/22 10:23:23;;;;;;;9.93;2.58;;;;;;;;;;5031216;28;20083;-51
2021/12/22 10:25:53;;;;;;;10.55;2.78;;;;;;;;;;5031221;28;20473;-47
2021/12/22 10:28:20;;;;;;;20.40;3.70;;;;;;;;;;5030977;28;20358;-49
2021/12/22 10:30:48;;;;;;;158.05;16.40;;;;;;;;;;5030879;28;20080;-50
2021/12/22 10:33:20;;;;;;;9.07;2.83;;;;;;;;;;5031089;28;20055;-50
2021/12/22 10:35:48;;;;;;;9.82;2.80;;;;;;;;;;5030722;28;20481;-50
2021/12/22 10:38:16;;;;;;;8.93;2.50;;;;;;;;;;5030923;28;20029;-53
2021/12/22 10:40:46;;;;;;;8.45;3.00;;;;;;;;;;5030610;28;20086;-52
2021/12/22 10:43:32;;;;;;;7.22;2.53;;;;;;;;;;5030888;28;20090;-52
2021/12/22 10:46:03;;;;;;;9.63;3.40;;;;;;;;;;5030943;28;20354;-52
2021/12/22 10:51:28;;;;;;;14.63;3.67;;;;;;;;;;5002149;28;20109;-51
2021/12/22 10:53:56;;;;;;;7.88;3.22;;;;;;;;;;5030962;28;20025;-52
2021/12/22 10:56:23;;;;;;;9.20;3.13;;;;;;;;;;5030756;28;20025;-49
2021/12/22 10:58:59;;;;;;;41.42;7.13;;;;;;;;;;5030702;28;20100;-49
2021/12/22 11:01:26;;;;;;;18.20;4.05;;;;;;;;;;5031224;28;20048;-52
2021/12/22 11:04:02;;;;;;;45.83;7.80;;;;;;;;;;5030411;28;20101;-56
2021/12/22 11:06:30;;;;;;;22.33;4.88;;;;;;;;;;5030595;28;20037;-52
2021/12/22 11:08:57;;;;;;;15.50;3.85;;;;;;;;;;5030335;28;20104;-55
2021/12/22 11:11:27;;;;;;;19.23;3.83;;;;;;;;;;5030886;28;20029;-52
2021/12/22 11:14:04;;;;;;;22.50;4.40;;;;;;;;;;5030692;28;20041;-53
2021/12/22 11:16:31;;;;;;;11.65;3.10;;;;;;;;;;5030580;28;20061;-55
2021/12/22 11:19:16;;;;;;;13.27;3.00;;;;;;;;;;5030453;28;20018;-53
2021/12/22 11:22:36;;;;;;;19.20;3.08;;;;;;;;;;5030255;28;20082;-55
2021/12/22 11:24:51;;;;;;;11.30;2.95;;;;;;;;;;5027098;28;20447;-56
2021/12/22 11:27:19;;;;;;;13.65;2.92;;;;;;;;;;5030499;28;20033;-54
2021/12/22 11:29:48;;;;;;;15.50;3.47;;;;;;;;;;5030341;28;20032;-56
2021/12/22 11:32:17;;;;;;;14.02;3.28;;;;;;;;;;5012734;28;20404;-54
2021/12/22 11:34:48;;;;;;;11.38;3.75;;;;;;;;;;5030161;28;20037;-56
2021/12/22 11:37:15;;;;;;;13.85;4.05;;;;;;;;;;5013084;28;20045;-53
2021/12/22 11:39:43;;;;;;;15.57;4.03;;;;;;;;;;5031179;28;20116;-55
2021/12/22 11:42:13;;;;;;;8.65;3.17;;;;;;;;;;5028559;28;20053;-51
2021/12/22 11:44:40;;;;;;;8.90;3.65;;;;;;;;;;5034314;28;20182;-53
2021/12/22 11:47:12;;;;;;;10.07;3.63;;;;;;;;;;5034793;28;20026;-51
2021/12/22 11:49:54;;;;;;;12.82;3.70;;;;;;;;;;5034237;28;20017;-55
2021/12/22 11:52:30;;;;;;;10.05;3.30;;;;;;;;;;5033645;28;20033;-53
2021/12/22 11:55:15;;;;;;;17.02;4.18;;;;;;;;;;5028080;28;20381;-48
2021/12/22 11:57:43;;;;;;;14.50;3.33;;;;;;;;;;5033426;28;20028;-51
2021/12/22 12:00:23;;;;;;;10.52;3.63;;;;;;;;;;5034094;28;20424;-54
2021/12/22 12:02:50;;;;;;;19.73;3.90;;;;;;;;;;5034220;28;20060;-49
2021/12/22 12:05:22;;;;;;;10.27;3.67;;;;;;;;;;5034322;28;20112;-53
2021/12/22 12:07:52;;;;;;;9.57;3.45;;;;;;;;;;5033954;28;20026;-51
2021/12/22 12:10:33;;;;;;;77.82;12.18;;;;;;;;;;5033460;28;20091;-55
2021/12/22 12:13:08;;;;;;;31.40;6.72;;;;;;;;;;5031450;28;20470;-54
2021/12/22 12:16:02;;;;;;;14.23;4.20;;;;;;;;;;5032041;28;20041;-55
2021/12/22 12:21:50;;;;;;;23.90;4.90;;;;;;;;;;5032704;28;20488;-58
2021/12/22 12:24:32;;;;;;;11.27;3.70;;;;;;;;;;5029356;28;20025;-51
2021/12/22 12:27:00;;;;;;;159.68;22.77;;;;;;;;;;5028975;28;20021;-48
2021/12/22 12:29:56;;;;;;;10.75;3.75;;;;;;;;;;5031447;28;20033;-49
2021/12/22 12:32:42;;;;;;;9.73;3.33;;;;;;;;;;4959746;28;20487;-54
2021/12/22 12:35:28;;;;;;;14.65;3.35;;;;;;;;;;5029617;28;20036;-51
2021/12/22 12:38:16;;;;;;;10.05;3.30;;;;;;;;;;5029271;28;20025;-56
2021/12/22 12:41:00;;;;;;;12.15;3.45;;;;;;;;;;5031209;28;20044;-49
2021/12/22 12:43:42;;;;;;;58.08;9.63;;;;;;;;;;5028653;28;20061;-53
2021/12/22 12:46:08;;;;;;;;;;;;;;;;;;5024622;28;20080;-53
2021/12/22 12:48:35;;;;;;;8.65;3.25;;;;;;;;;;5013639;28;19935;-51
2021/12/22 12:51:29;;;;;;;13.32;3.88;;;;;;;;;;5030528;28;20389;-52
2021/12/22 12:53:58;;;;;;;39.17;5.90;;;;;;;;;;5032280;28;20033;-50
2021/12/22 12:56:31;;;;;;;7.43;3.30;;;;;;;;;;5031797;28;20025;-55
2021/12/22 12:58:59;;;;;;;17.08;3.85;;;;;;;;;;5033001;28;20473;-52
2021/12/22 13:01:50;;;;;;;17.92;4.50;;;;;;;;;;5015467;28;20037;-51
2021/12/22 13:04:20;;;;;;;20.60;4.80;;;;;;;;;;5033091;28;20114;-52
2021/12/22 13:06:48;;;;;;;19.90;4.32;;;;;;;;;;5033294;28;20034;-49
2021/12/22 13:09:25;;;;;;;28.80;5.22;;;;;;;;;;5033072;28;20038;-51
2021/12/22 13:11:59;;;;;;;87.93;12.77;;;;;;;;;;5032612;28;20026;-53
2021/12/22 13:17:19;;;;;;;20.17;3.85;;;;;;;;;;5032741;28;20083;-48
2021/12/22 13:19:50;;;;;;;27.42;5.50;;;;;;;;;;5021639;28;20025;-49
2021/12/22 13:22:20;;;;;;;26.08;6.97;;;;;;;;;;5020815;28;20093;-51
2021/12/22 13:24:48;;;;;;;9.73;3.05;;;;;;;;;;5021162;28;20507;-52
2021/12/22 13:27:31;;;;;;;14.15;3.95;;;;;;;;;;5028845;28;20079;-54
2021/12/22 13:30:15;;;;;;;10.63;3.45;;;;;;;;;;5020845;28;20017;-50
2021/12/22 13:33:14;;;;;;;13.45;3.40;;;;;;;;;;5012241;28;20034;-57
2021/12/22 13:35:43;;;;;;;13.00;2.80;;;;;;;;;;4989438;28;20062;-58
2021/12/22 13:38:28;;;;;;;17.48;3.70;;;;;;;;;;5020160;28;20495;-52
2021/12/22 13:41:03;;;;;;;9.40;2.90;;;;;;;;;;5019963;28;20038;-52
2021/12/22 13:43:33;;;;;;;42.78;6.43;;;;;;;;;;5004575;28;20496;-52
2021/12/22 13:46:09;;;;;;;14.02;3.05;;;;;;;;;;5021359;28;20021;-60
2021/12/22 13:48:50;;;;;;;6.47;2.80;;;;;;;;;;5019879;28;20021;-61
2021/12/22 13:51:22;;;;;;;7.50;3.50;;;;;;;;;;5020790;28;20030;-53
2021/12/22 13:53:50;;;;;;;13.30;2.95;;;;;;;;;;5025718;28;20049;-53
2021/12/22 13:56:17;;;;;;;16.08;3.08;;;;;;;;;;5014215;28;20025;-46
2021/12/22 13:58:47;;;;;;;8.65;3.60;;;;;;;;;;5031815;28;20355;-47
2021/12/22 14:01:19;;;;;;;12.45;4.80;;;;;;;;;;5031915;28;20053;-48
2021/12/22 14:04:06;;;;;;;10.18;3.20;;;;;;;;;;5032237;28;20029;-48
2021/12/22 14:06:33;;;;;;;9.93;3.17;;;;;;;;;;5013630;28;20033;-47
2021/12/22 14:09:00;;;;;;;7.28;2.72;;;;;;;;;;5031687;28;20029;-46
2021/12/22 14:11:29;;;;;;;8.38;2.70;;;;;;;;;;5022529;28;20436;-48
2021/12/22 14:13:56;;;;;;;13.50;3.30;;;;;;;;;;5025148;28;20100;-47
2021/12/22 14:16:29;;;;;;;7.75;2.97;;;;;;;;;;5012062;28;20065;-49
2021/12/22 14:18:57;;;;;;;52.08;8.90;;;;;;;;;;5011755;28;20515;-48
2021/12/22 14:21:25;;;;;;;21.00;3.85;;;;;;;;;;5011589;28;20141;-50
2021/12/22 14:23:59;;;;;;;5.57;2.38;;;;;;;;;;5016655;28;20021;-47
2021/12/22 14:26:27;;;;;;;42.55;6.68;;;;;;;;;;5010676;28;20040;-48
2021/12/22 14:29:06;;;;;;;23.92;5.18;;;;;;;;;;5029060;28;20457;-47
2021/12/22 14:31:34;;;;;;;9.00;3.13;;;;;;;;;;5028546;28;20044;-48
2021/12/22 14:34:08;;;;;;;11.43;3.17;;;;;;;;;;5030543;28;20021;-49
2021/12/22 14:36:42;;;;;;;13.73;3.50;;;;;;;;;;5030197;28;20029;-47
2021/12/22 14:39:09;;;;;;;14.15;3.28;;;;;;;;;;5030107;28;20025;-47
2021/12/22 14:41:36;;;;;;;13.63;3.75;;;;;;;;;;5030274;28;20056;-47
2021/12/22 14:44:03;;;;;;;15.32;4.00;;;;;;;;;;5029051;28;20041;-48
2021/12/22 14:46:39;;;;;;;12.15;3.50;;;;;;;;;;5029443;28;20033;-46
2021/12/22 14:49:16;;;;;;;9.30;3.25;;;;;;;;;;5029727;28;20037;-49
2021/12/22 14:51:45;;;;;;;178.10;24.10;;;;;;;;;;5030282;28;20030;-47
2021/12/22 14:54:12;;;;;;;53.03;7.75;;;;;;;;;;5029955;28;20423;-47
2021/12/22 14:56:47;;;;;;;16.55;3.75;;;;;;;;;;5030809;28;20021;-48
2021/12/22 14:59:15;;;;;;;13.75;3.67;;;;;;;;;;5030127;28;20174;-47
2021/12/22 15:01:42;;;;;;;12.95;3.92;;;;;;;;;;5025882;28;20393;-49
2021/12/22 15:04:09;;;;;;;18.80;3.72;;;;;;;;;;5029615;28;20151;-48
2021/12/22 15:06:37;;;;;;;8.15;3.03;;;;;;;;;;5030254;28;20493;-47
2021/12/22 15:09:05;;;;;;;14.30;3.83;;;;;;;;;;5028789;28;20033;-48
2021/12/22 15:11:32;;;;;;;12.32;3.30;;;;;;;;;;5030096;28;20013;-49
2021/12/22 15:14:00;;;;;;;13.25;3.53;;;;;;;;;;5028472;28;20034;-47
2021/12/22 15:16:28;;;;;;;13.43;3.50;;;;;;;;;;5029342;28;20541;-47
2021/12/22 15:18:55;;;;;;;10.23;3.35;;;;;;;;;;5032141;28;20400;-49